KEUG/EUG METAR and TAF weather

Enter ICAO airport designator
Station Type Date Time Source
KEUG METAR 2019/04/25 01:54 UTC NOAA

KEUG 250154Z 03009KT 10SM SCT250 16/07 A3015 RMK AO2 SLP209 T01610067


Station Type Date Time Source
KEUG Decoded METAR 2019/04/25 01:54 UTC NOAA

MAHLON SWEET FIELD, OR, United States (KEUG) 44-08N 123-13W 114M
Apr 24, 2019 - 09:54 PM EDT / 2019.04.25 0154 UTC
Wind: from the NNE (030 degrees) at 10 MPH (9 KT):0
Visibility: 10 mile(s):0
Sky conditions: partly cloudy
Temperature: 61.0 F (16.1 C)
Dew Point: 44.1 F (6.7 C)
Relative Humidity: 53%
Pressure (altimeter): 30.15 in. Hg (1020 hPa)
ob: KEUG 250154Z 03009KT 10SM SCT250 16/07 A3015 RMK AO2 SLP209 T01610067
cycle: 2

Station Type Date Time Source
KEUG TAF 2019/04/24 18:22 UTC NOAA

TAF KEUG 241720Z 2418/2518 01016G24KT P6SM BKN035
FM242000 01016G24KT P6SM SKC
FM250300 36011KT P6SM SKC
FM250800 02004KT P6SM SKC

Example: see airport list